sensor_id;sensor_type;location;lat;lon;timestamp;P1;durP1;ratioP1;P2;durP2;ratioP2
56363;SDS011;42261;52.094;4.326;2022-11-20T00:00:01;11.82;;;4.32;;
56363;SDS011;42261;52.094;4.326;2022-11-20T00:02:47;10.88;;;4.82;;
56363;SDS011;42261;52.094;4.326;2022-11-20T00:05:32;9.07;;;5.00;;
56363;SDS011;42261;52.094;4.326;2022-11-20T00:08:17;13.10;;;5.97;;
56363;SDS011;42261;52.094;4.326;2022-11-20T00:11:06;9.43;;;5.55;;
56363;SDS011;42261;52.094;4.326;2022-11-20T00:13:52;10.07;;;5.57;;
56363;SDS011;42261;52.094;4.326;2022-11-20T00:16:44;11.00;;;5.15;;
56363;SDS011;42261;52.094;4.326;2022-11-20T00:19:29;11.65;;;5.10;;
56363;SDS011;42261;52.094;4.326;2022-11-20T00:22:14;8.98;;;5.20;;
56363;SDS011;42261;52.094;4.326;2022-11-20T00:24:58;10.52;;;5.43;;
56363;SDS011;42261;52.094;4.326;2022-11-20T00:27:42;12.07;;;5.88;;
56363;SDS011;42261;52.094;4.326;2022-11-20T00:30:26;10.50;;;5.97;;
56363;SDS011;42261;52.094;4.326;2022-11-20T00:33:11;10.18;;;5.05;;
56363;SDS011;42261;52.094;4.326;2022-11-20T00:36:12;12.77;;;5.57;;
56363;SDS011;42261;52.094;4.326;2022-11-20T00:39:00;15.63;;;7.03;;
56363;SDS011;42261;52.094;4.326;2022-11-20T00:41:45;12.73;;;6.53;;
56363;SDS011;42261;52.094;4.326;2022-11-20T00:44:29;11.18;;;5.93;;
56363;SDS011;42261;52.094;4.326;2022-11-20T00:47:13;12.07;;;5.80;;
56363;SDS011;42261;52.094;4.326;2022-11-20T00:49:57;11.90;;;6.07;;
56363;SDS011;42261;52.094;4.326;2022-11-20T00:52:41;10.30;;;5.55;;
56363;SDS011;42261;52.094;4.326;2022-11-20T00:55:25;10.18;;;5.75;;
56363;SDS011;42261;52.094;4.326;2022-11-20T00:58:10;9.93;;;5.22;;
56363;SDS011;42261;52.094;4.326;2022-11-20T01:00:59;9.65;;;5.43;;
56363;SDS011;42261;52.094;4.326;2022-11-20T01:04:02;12.10;;;6.45;;
56363;SDS011;42261;52.094;4.326;2022-11-20T01:06:46;12.00;;;5.40;;
56363;SDS011;42261;52.094;4.326;2022-11-20T01:09:30;12.25;;;6.30;;
56363;SDS011;42261;52.094;4.326;2022-11-20T01:12:15;11.55;;;6.07;;
56363;SDS011;42261;52.094;4.326;2022-11-20T01:14:59;8.32;;;4.85;;
56363;SDS011;42261;52.094;4.326;2022-11-20T01:17:44;12.32;;;6.15;;
56363;SDS011;42261;52.094;4.326;2022-11-20T01:20:28;13.77;;;5.93;;
56363;SDS011;42261;52.094;4.326;2022-11-20T01:23:13;10.27;;;5.30;;
56363;SDS011;42261;52.094;4.326;2022-11-20T01:25:59;8.80;;;5.40;;
56363;SDS011;42261;52.094;4.326;2022-11-20T01:28:47;13.10;;;6.07;;
56363;SDS011;42261;52.094;4.326;2022-11-20T01:31:33;9.40;;;5.38;;
56363;SDS011;42261;52.094;4.326;2022-11-20T01:34:19;10.77;;;5.60;;
56363;SDS011;42261;52.094;4.326;2022-11-20T01:37:04;11.77;;;5.88;;
56363;SDS011;42261;52.094;4.326;2022-11-20T01:39:49;10.55;;;5.45;;
56363;SDS011;42261;52.094;4.326;2022-11-20T01:42:33;15.15;;;6.72;;
56363;SDS011;42261;52.094;4.326;2022-11-20T01:48:36;12.75;;;6.15;;
56363;SDS011;42261;52.094;4.326;2022-11-20T01:54:22;15.23;;;7.00;;
56363;SDS011;42261;52.094;4.326;2022-11-20T01:57:10;13.60;;;6.18;;
56363;SDS011;42261;52.094;4.326;2022-11-20T02:00:00;14.88;;;6.88;;
56363;SDS011;42261;52.094;4.326;2022-11-20T02:03:02;14.80;;;6.43;;
56363;SDS011;42261;52.094;4.326;2022-11-20T02:08:44;10.82;;;5.55;;
56363;SDS011;42261;52.094;4.326;2022-11-20T02:11:31;11.93;;;5.50;;
56363;SDS011;42261;52.094;4.326;2022-11-20T02:14:15;10.40;;;5.50;;
56363;SDS011;42261;52.094;4.326;2022-11-20T02:17:00;11.90;;;6.28;;
56363;SDS011;42261;52.094;4.326;2022-11-20T02:19:45;13.48;;;5.47;;
56363;SDS011;42261;52.094;4.326;2022-11-20T02:22:31;12.82;;;6.55;;
56363;SDS011;42261;52.094;4.326;2022-11-20T02:25:20;12.48;;;6.07;;
56363;SDS011;42261;52.094;4.326;2022-11-20T02:28:05;12.95;;;6.45;;
56363;SDS011;42261;52.094;4.326;2022-11-20T02:30:49;9.40;;;5.30;;
56363;SDS011;42261;52.094;4.326;2022-11-20T02:33:35;17.63;;;6.95;;
56363;SDS011;42261;52.094;4.326;2022-11-20T02:36:18;10.52;;;5.30;;
56363;SDS011;42261;52.094;4.326;2022-11-20T02:39:03;12.15;;;6.03;;
56363;SDS011;42261;52.094;4.326;2022-11-20T02:41:48;13.02;;;6.00;;
56363;SDS011;42261;52.094;4.326;2022-11-20T02:44:32;10.75;;;5.10;;
56363;SDS011;42261;52.094;4.326;2022-11-20T02:47:17;13.52;;;5.90;;
56363;SDS011;42261;52.094;4.326;2022-11-20T02:50:01;11.25;;;5.57;;
56363;SDS011;42261;52.094;4.326;2022-11-20T02:52:45;15.25;;;6.15;;
56363;SDS011;42261;52.094;4.326;2022-11-20T02:55:29;13.63;;;7.05;;
56363;SDS011;42261;52.094;4.326;2022-11-20T02:58:13;14.88;;;7.53;;
56363;SDS011;42261;52.094;4.326;2022-11-20T03:00:57;15.10;;;7.20;;
56363;SDS011;42261;52.094;4.326;2022-11-20T03:03:41;12.60;;;5.85;;
56363;SDS011;42261;52.094;4.326;2022-11-20T03:06:26;11.13;;;5.75;;
56363;SDS011;42261;52.094;4.326;2022-11-20T03:09:10;13.65;;;6.38;;
56363;SDS011;42261;52.094;4.326;2022-11-20T03:11:55;9.35;;;6.10;;
56363;SDS011;42261;52.094;4.326;2022-11-20T03:14:39;15.48;;;6.72;;
56363;SDS011;42261;52.094;4.326;2022-11-20T03:17:24;11.40;;;5.75;;
56363;SDS011;42261;52.094;4.326;2022-11-20T03:20:08;12.63;;;6.20;;
56363;SDS011;42261;52.094;4.326;2022-11-20T03:22:53;12.80;;;5.55;;
56363;SDS011;42261;52.094;4.326;2022-11-20T03:25:38;13.32;;;6.35;;
56363;SDS011;42261;52.094;4.326;2022-11-20T03:28:22;12.73;;;6.32;;
56363;SDS011;42261;52.094;4.326;2022-11-20T03:31:11;11.68;;;5.93;;
56363;SDS011;42261;52.094;4.326;2022-11-20T03:33:58;10.82;;;6.43;;
56363;SDS011;42261;52.094;4.326;2022-11-20T03:36:43;12.25;;;5.88;;
56363;SDS011;42261;52.094;4.326;2022-11-20T03:39:27;11.63;;;6.18;;
56363;SDS011;42261;52.094;4.326;2022-11-20T03:42:11;15.25;;;7.30;;
56363;SDS011;42261;52.094;4.326;2022-11-20T03:45:15;11.40;;;5.78;;
56363;SDS011;42261;52.094;4.326;2022-11-20T03:48:01;14.23;;;6.70;;
56363;SDS011;42261;52.094;4.326;2022-11-20T03:50:46;13.10;;;6.03;;
56363;SDS011;42261;52.094;4.326;2022-11-20T03:53:31;9.77;;;5.65;;
56363;SDS011;42261;52.094;4.326;2022-11-20T03:56:16;14.00;;;6.38;;
56363;SDS011;42261;52.094;4.326;2022-11-20T03:59:03;13.52;;;6.65;;
56363;SDS011;42261;52.094;4.326;2022-11-20T04:01:47;11.93;;;7.03;;
56363;SDS011;42261;52.094;4.326;2022-11-20T04:04:31;13.23;;;5.65;;
56363;SDS011;42261;52.094;4.326;2022-11-20T04:07:15;12.88;;;6.00;;
56363;SDS011;42261;52.094;4.326;2022-11-20T04:09:59;12.00;;;5.97;;
56363;SDS011;42261;52.094;4.326;2022-11-20T04:12:44;15.57;;;6.35;;
56363;SDS011;42261;52.094;4.326;2022-11-20T04:15:30;11.65;;;6.03;;
56363;SDS011;42261;52.094;4.326;2022-11-20T04:18:15;11.27;;;5.50;;
56363;SDS011;42261;52.094;4.326;2022-11-20T04:20:59;11.50;;;5.85;;
56363;SDS011;42261;52.094;4.326;2022-11-20T04:23:44;14.20;;;7.07;;
56363;SDS011;42261;52.094;4.326;2022-11-20T04:26:29;9.07;;;5.40;;
56363;SDS011;42261;52.094;4.326;2022-11-20T04:29:14;12.38;;;6.30;;
56363;SDS011;42261;52.094;4.326;2022-11-20T04:31:59;11.20;;;6.43;;
56363;SDS011;42261;52.094;4.326;2022-11-20T04:34:44;16.20;;;6.63;;
56363;SDS011;42261;52.094;4.326;2022-11-20T04:37:28;13.02;;;6.75;;
56363;SDS011;42261;52.094;4.326;2022-11-20T04:40:12;12.55;;;5.95;;
56363;SDS011;42261;52.094;4.326;2022-11-20T04:42:58;15.10;;;6.25;;
56363;SDS011;42261;52.094;4.326;2022-11-20T04:45:42;16.30;;;7.15;;
56363;SDS011;42261;52.094;4.326;2022-11-20T04:48:27;13.68;;;6.15;;
56363;SDS011;42261;52.094;4.326;2022-11-20T04:51:12;10.95;;;6.45;;
56363;SDS011;42261;52.094;4.326;2022-11-20T04:54:00;15.05;;;6.72;;
56363;SDS011;42261;52.094;4.326;2022-11-20T04:56:44;12.18;;;6.43;;
56363;SDS011;42261;52.094;4.326;2022-11-20T04:59:31;12.60;;;6.30;;
56363;SDS011;42261;52.094;4.326;2022-11-20T05:02:15;12.13;;;5.88;;
56363;SDS011;42261;52.094;4.326;2022-11-20T05:04:59;14.23;;;6.85;;
56363;SDS011;42261;52.094;4.326;2022-11-20T05:07:43;16.95;;;7.63;;
56363;SDS011;42261;52.094;4.326;2022-11-20T05:10:27;11.88;;;6.63;;
56363;SDS011;42261;52.094;4.326;2022-11-20T05:13:12;16.02;;;7.05;;
56363;SDS011;42261;52.094;4.326;2022-11-20T05:16:07;15.73;;;8.02;;
56363;SDS011;42261;52.094;4.326;2022-11-20T05:18:53;13.98;;;6.57;;
56363;SDS011;42261;52.094;4.326;2022-11-20T05:21:38;14.73;;;7.32;;
56363;SDS011;42261;52.094;4.326;2022-11-20T05:24:23;14.23;;;7.03;;
56363;SDS011;42261;52.094;4.326;2022-11-20T05:27:07;13.13;;;6.63;;
56363;SDS011;42261;52.094;4.326;2022-11-20T05:29:51;14.05;;;6.80;;
56363;SDS011;42261;52.094;4.326;2022-11-20T05:32:36;15.38;;;6.88;;
56363;SDS011;42261;52.094;4.326;2022-11-20T05:35:20;16.63;;;7.47;;
56363;SDS011;42261;52.094;4.326;2022-11-20T05:38:04;13.02;;;7.07;;
56363;SDS011;42261;52.094;4.326;2022-11-20T05:40:48;15.40;;;6.70;;
56363;SDS011;42261;52.094;4.326;2022-11-20T05:43:34;15.15;;;7.50;;
56363;SDS011;42261;52.094;4.326;2022-11-20T05:46:19;11.38;;;6.47;;
56363;SDS011;42261;52.094;4.326;2022-11-20T05:49:04;14.57;;;8.13;;
56363;SDS011;42261;52.094;4.326;2022-11-20T05:51:48;13.85;;;7.10;;
56363;SDS011;42261;52.094;4.326;2022-11-20T05:54:33;11.38;;;7.20;;
56363;SDS011;42261;52.094;4.326;2022-11-20T05:57:18;12.68;;;6.43;;
56363;SDS011;42261;52.094;4.326;2022-11-20T06:00:02;16.05;;;7.18;;
56363;SDS011;42261;52.094;4.326;2022-11-20T06:02:47;13.65;;;6.88;;
56363;SDS011;42261;52.094;4.326;2022-11-20T06:05:31;13.43;;;6.22;;
56363;SDS011;42261;52.094;4.326;2022-11-20T06:08:17;12.82;;;6.88;;
56363;SDS011;42261;52.094;4.326;2022-11-20T06:11:05;12.52;;;6.80;;
56363;SDS011;42261;52.094;4.326;2022-11-20T06:13:50;15.07;;;7.57;;
56363;SDS011;42261;52.094;4.326;2022-11-20T06:16:35;15.43;;;7.10;;
56363;SDS011;42261;52.094;4.326;2022-11-20T06:19:19;13.30;;;7.63;;
56363;SDS011;42261;52.094;4.326;2022-11-20T06:22:04;15.38;;;7.95;;
56363;SDS011;42261;52.094;4.326;2022-11-20T06:24:48;16.63;;;8.13;;
56363;SDS011;42261;52.094;4.326;2022-11-20T06:27:32;16.90;;;8.23;;
56363;SDS011;42261;52.094;4.326;2022-11-20T06:30:16;14.32;;;8.05;;
56363;SDS011;42261;52.094;4.326;2022-11-20T06:33:00;17.92;;;8.70;;
56363;SDS011;42261;52.094;4.326;2022-11-20T06:35:45;14.40;;;7.60;;
56363;SDS011;42261;52.094;4.326;2022-11-20T06:38:29;13.38;;;7.88;;
56363;SDS011;42261;52.094;4.326;2022-11-20T06:41:17;12.05;;;6.93;;
56363;SDS011;42261;52.094;4.326;2022-11-20T06:46:49;15.93;;;7.50;;
56363;SDS011;42261;52.094;4.326;2022-11-20T06:49:33;15.27;;;7.80;;
56363;SDS011;42261;52.094;4.326;2022-11-20T06:52:18;16.42;;;7.07;;
56363;SDS011;42261;52.094;4.326;2022-11-20T06:55:03;16.45;;;8.20;;
56363;SDS011;42261;52.094;4.326;2022-11-20T06:57:47;13.07;;;7.82;;
56363;SDS011;42261;52.094;4.326;2022-11-20T07:00:31;14.60;;;7.70;;
56363;SDS011;42261;52.094;4.326;2022-11-20T07:03:16;16.50;;;8.13;;
56363;SDS011;42261;52.094;4.326;2022-11-20T07:06:01;16.92;;;8.73;;
56363;SDS011;42261;52.094;4.326;2022-11-20T07:08:50;15.43;;;7.25;;
56363;SDS011;42261;52.094;4.326;2022-11-20T07:11:36;17.15;;;8.68;;
56363;SDS011;42261;52.094;4.326;2022-11-20T07:14:21;16.83;;;8.07;;
56363;SDS011;42261;52.094;4.326;2022-11-20T07:17:05;12.30;;;6.70;;
56363;SDS011;42261;52.094;4.326;2022-11-20T07:19:49;17.40;;;8.35;;
56363;SDS011;42261;52.094;4.326;2022-11-20T07:22:33;15.23;;;8.02;;
56363;SDS011;42261;52.094;4.326;2022-11-20T07:25:17;17.95;;;8.27;;
56363;SDS011;42261;52.094;4.326;2022-11-20T07:28:01;14.15;;;6.97;;
56363;SDS011;42261;52.094;4.326;2022-11-20T07:30:52;16.05;;;8.20;;
56363;SDS011;42261;52.094;4.326;2022-11-20T07:33:36;20.73;;;8.70;;
56363;SDS011;42261;52.094;4.326;2022-11-20T07:36:20;14.57;;;7.50;;
56363;SDS011;42261;52.094;4.326;2022-11-20T07:39:04;15.63;;;8.50;;
56363;SDS011;42261;52.094;4.326;2022-11-20T07:41:49;18.67;;;8.60;;
56363;SDS011;42261;52.094;4.326;2022-11-20T07:44:34;19.15;;;8.35;;
56363;SDS011;42261;52.094;4.326;2022-11-20T07:47:18;17.60;;;8.38;;
56363;SDS011;42261;52.094;4.326;2022-11-20T07:50:02;14.25;;;7.25;;
56363;SDS011;42261;52.094;4.326;2022-11-20T07:52:47;18.00;;;8.40;;
56363;SDS011;42261;52.094;4.326;2022-11-20T07:55:31;15.70;;;8.18;;
56363;SDS011;42261;52.094;4.326;2022-11-20T07:58:16;17.35;;;8.57;;
56363;SDS011;42261;52.094;4.326;2022-11-20T08:01:04;15.23;;;7.97;;
56363;SDS011;42261;52.094;4.326;2022-11-20T08:03:49;16.08;;;7.60;;
56363;SDS011;42261;52.094;4.326;2022-11-20T08:06:34;16.90;;;8.63;;
56363;SDS011;42261;52.094;4.326;2022-11-20T08:09:19;17.63;;;7.93;;
56363;SDS011;42261;52.094;4.326;2022-11-20T08:12:03;18.80;;;8.85;;
56363;SDS011;42261;52.094;4.326;2022-11-20T08:15:06;17.13;;;9.07;;
56363;SDS011;42261;52.094;4.326;2022-11-20T08:17:51;17.38;;;8.80;;
56363;SDS011;42261;52.094;4.326;2022-11-20T08:20:35;21.35;;;9.40;;
56363;SDS011;42261;52.094;4.326;2022-11-20T08:23:19;17.08;;;8.63;;
56363;SDS011;42261;52.094;4.326;2022-11-20T08:26:03;18.70;;;9.73;;
56363;SDS011;42261;52.094;4.326;2022-11-20T08:28:48;18.58;;;8.80;;
56363;SDS011;42261;52.094;4.326;2022-11-20T08:31:34;14.50;;;8.63;;
56363;SDS011;42261;52.094;4.326;2022-11-20T08:34:18;16.05;;;8.65;;
56363;SDS011;42261;52.094;4.326;2022-11-20T08:37:02;19.73;;;9.73;;
56363;SDS011;42261;52.094;4.326;2022-11-20T08:39:47;16.92;;;8.95;;
56363;SDS011;42261;52.094;4.326;2022-11-20T08:42:31;17.13;;;9.15;;
56363;SDS011;42261;52.094;4.326;2022-11-20T08:45:15;18.75;;;9.50;;
56363;SDS011;42261;52.094;4.326;2022-11-20T08:48:01;22.05;;;10.43;;
56363;SDS011;42261;52.094;4.326;2022-11-20T08:50:45;16.85;;;8.57;;
56363;SDS011;42261;52.094;4.326;2022-11-20T08:53:30;18.88;;;10.77;;
56363;SDS011;42261;52.094;4.326;2022-11-20T08:56:14;20.70;;;9.07;;
56363;SDS011;42261;52.094;4.326;2022-11-20T08:58:59;21.08;;;10.63;;
56363;SDS011;42261;52.094;4.326;2022-11-20T09:01:44;18.92;;;9.73;;
56363;SDS011;42261;52.094;4.326;2022-11-20T09:04:28;15.63;;;8.48;;
56363;SDS011;42261;52.094;4.326;2022-11-20T09:07:12;18.75;;;9.43;;
56363;SDS011;42261;52.094;4.326;2022-11-20T09:09:57;16.73;;;8.88;;
56363;SDS011;42261;52.094;4.326;2022-11-20T09:12:43;17.85;;;8.90;;
56363;SDS011;42261;52.094;4.326;2022-11-20T09:15:27;20.52;;;9.68;;
56363;SDS011;42261;52.094;4.326;2022-11-20T09:18:12;19.92;;;9.98;;
56363;SDS011;42261;52.094;4.326;2022-11-20T09:20:57;16.90;;;9.32;;
56363;SDS011;42261;52.094;4.326;2022-11-20T09:23:42;17.77;;;9.10;;
56363;SDS011;42261;52.094;4.326;2022-11-20T09:26:26;18.85;;;10.18;;
56363;SDS011;42261;52.094;4.326;2022-11-20T09:29:10;19.38;;;10.38;;
56363;SDS011;42261;52.094;4.326;2022-11-20T09:31:55;20.17;;;10.88;;
56363;SDS011;42261;52.094;4.326;2022-11-20T09:34:39;16.20;;;9.27;;
56363;SDS011;42261;52.094;4.326;2022-11-20T09:37:23;19.38;;;9.57;;
56363;SDS011;42261;52.094;4.326;2022-11-20T09:40:10;18.88;;;9.35;;
56363;SDS011;42261;52.094;4.326;2022-11-20T09:43:05;18.98;;;10.02;;
56363;SDS011;42261;52.094;4.326;2022-11-20T09:52:20;15.50;;;9.15;;
56363;SDS011;42261;52.094;4.326;2022-11-20T09:55:09;19.58;;;9.73;;
56363;SDS011;42261;52.094;4.326;2022-11-20T09:57:54;21.42;;;10.60;;
56363;SDS011;42261;52.094;4.326;2022-11-20T10:00:40;19.02;;;10.57;;
56363;SDS011;42261;52.094;4.326;2022-11-20T10:03:36;19.35;;;9.95;;
56363;SDS011;42261;52.094;4.326;2022-11-20T10:06:29;25.13;;;11.65;;
56363;SDS011;42261;52.094;4.326;2022-11-20T10:09:37;20.42;;;9.93;;
56363;SDS011;42261;52.094;4.326;2022-11-20T10:12:27;18.02;;;10.13;;
56363;SDS011;42261;52.094;4.326;2022-11-20T10:15:22;19.98;;;11.60;;
56363;SDS011;42261;52.094;4.326;2022-11-20T10:30:23;21.85;;;10.68;;
56363;SDS011;42261;52.094;4.326;2022-11-20T10:33:13;21.80;;;11.57;;
56363;SDS011;42261;52.094;4.326;2022-11-20T10:36:05;22.45;;;11.68;;
56363;SDS011;42261;52.094;4.326;2022-11-20T10:39:28;23.40;;;11.60;;
56363;SDS011;42261;52.094;4.326;2022-11-20T10:42:22;19.90;;;9.57;;
56363;SDS011;42261;52.094;4.326;2022-11-20T10:48:20;30.98;;;13.00;;
56363;SDS011;42261;52.094;4.326;2022-11-20T10:53:54;22.10;;;12.88;;
56363;SDS011;42261;52.094;4.326;2022-11-20T10:56:44;22.65;;;12.32;;
56363;SDS011;42261;52.094;4.326;2022-11-20T11:02:43;28.05;;;12.40;;
56363;SDS011;42261;52.094;4.326;2022-11-20T11:08:18;27.02;;;13.48;;
56363;SDS011;42261;52.094;4.326;2022-11-20T11:14:15;24.15;;;12.52;;
56363;SDS011;42261;52.094;4.326;2022-11-20T11:17:00;24.58;;;12.55;;
56363;SDS011;42261;52.094;4.326;2022-11-20T11:19:45;26.17;;;12.07;;
56363;SDS011;42261;52.094;4.326;2022-11-20T11:22:31;26.27;;;12.73;;
56363;SDS011;42261;52.094;4.326;2022-11-20T11:25:29;24.10;;;12.73;;
56363;SDS011;42261;52.094;4.326;2022-11-20T11:31:02;27.30;;;12.90;;
56363;SDS011;42261;52.094;4.326;2022-11-20T11:33:46;24.15;;;12.43;;
56363;SDS011;42261;52.094;4.326;2022-11-20T11:36:30;27.08;;;12.63;;
56363;SDS011;42261;52.094;4.326;2022-11-20T11:39:16;25.20;;;12.60;;
56363;SDS011;42261;52.094;4.326;2022-11-20T11:42:02;29.42;;;14.27;;
56363;SDS011;42261;52.094;4.326;2022-11-20T11:44:47;25.65;;;12.65;;
56363;SDS011;42261;52.094;4.326;2022-11-20T11:47:50;30.55;;;13.30;;
56363;SDS011;42261;52.094;4.326;2022-11-20T11:50:36;27.33;;;13.23;;
56363;SDS011;42261;52.094;4.326;2022-11-20T11:53:21;31.23;;;13.55;;
56363;SDS011;42261;52.094;4.326;2022-11-20T11:56:09;27.05;;;12.68;;
56363;SDS011;42261;52.094;4.326;2022-11-20T11:58:54;28.65;;;13.82;;
56363;SDS011;42261;52.094;4.326;2022-11-20T12:01:54;25.90;;;13.73;;
56363;SDS011;42261;52.094;4.326;2022-11-20T12:04:43;28.10;;;14.88;;
56363;SDS011;42261;52.094;4.326;2022-11-20T12:16:28;32.20;;;15.63;;
56363;SDS011;42261;52.094;4.326;2022-11-20T12:19:14;33.85;;;15.32;;
56363;SDS011;42261;52.094;4.326;2022-11-20T12:25:09;32.40;;;15.57;;
56363;SDS011;42261;52.094;4.326;2022-11-20T12:28:02;33.33;;;15.15;;
56363;SDS011;42261;52.094;4.326;2022-11-20T12:34:26;33.15;;;15.50;;
56363;SDS011;42261;52.094;4.326;2022-11-20T12:37:37;32.33;;;16.25;;
56363;SDS011;42261;52.094;4.326;2022-11-20T12:41:15;33.50;;;16.05;;
56363;SDS011;42261;52.094;4.326;2022-11-20T12:54:46;32.47;;;15.65;;
56363;SDS011;42261;52.094;4.326;2022-11-20T12:57:50;34.15;;;16.92;;
56363;SDS011;42261;52.094;4.326;2022-11-20T13:00:38;36.47;;;16.88;;
56363;SDS011;42261;52.094;4.326;2022-11-20T13:03:48;36.97;;;17.08;;
56363;SDS011;42261;52.094;4.326;2022-11-20T13:06:35;37.47;;;17.23;;
56363;SDS011;42261;52.094;4.326;2022-11-20T13:09:20;37.10;;;18.67;;
56363;SDS011;42261;52.094;4.326;2022-11-20T13:15:08;37.58;;;18.58;;
56363;SDS011;42261;52.094;4.326;2022-11-20T13:18:15;37.50;;;19.05;;
56363;SDS011;42261;52.094;4.326;2022-11-20T13:20:59;40.13;;;18.55;;
56363;SDS011;42261;52.094;4.326;2022-11-20T13:23:45;39.35;;;18.52;;
56363;SDS011;42261;52.094;4.326;2022-11-20T13:26:30;39.85;;;17.73;;
56363;SDS011;42261;52.094;4.326;2022-11-20T13:29:17;42.22;;;20.05;;
56363;SDS011;42261;52.094;4.326;2022-11-20T13:32:03;37.47;;;17.75;;
56363;SDS011;42261;52.094;4.326;2022-11-20T13:34:57;44.97;;;19.48;;
56363;SDS011;42261;52.094;4.326;2022-11-20T13:37:43;40.10;;;18.98;;
56363;SDS011;42261;52.094;4.326;2022-11-20T13:40:27;43.58;;;20.35;;
56363;SDS011;42261;52.094;4.326;2022-11-20T13:43:34;40.47;;;18.58;;
56363;SDS011;42261;52.094;4.326;2022-11-20T13:46:21;37.60;;;16.98;;
56363;SDS011;42261;52.094;4.326;2022-11-20T13:49:09;35.00;;;17.92;;
56363;SDS011;42261;52.094;4.326;2022-11-20T13:58:19;38.30;;;17.23;;
56363;SDS011;42261;52.094;4.326;2022-11-20T14:01:28;43.33;;;19.08;;
56363;SDS011;42261;52.094;4.326;2022-11-20T14:04:18;39.67;;;18.30;;
56363;SDS011;42261;52.094;4.326;2022-11-20T14:07:10;37.05;;;17.65;;
56363;SDS011;42261;52.094;4.326;2022-11-20T14:09:55;36.38;;;17.20;;
56363;SDS011;42261;52.094;4.326;2022-11-20T14:12:42;42.03;;;18.38;;
56363;SDS011;42261;52.094;4.326;2022-11-20T14:16:06;48.80;;;22.83;;
56363;SDS011;42261;52.094;4.326;2022-11-20T14:18:50;38.10;;;19.08;;
56363;SDS011;42261;52.094;4.326;2022-11-20T14:21:36;38.92;;;20.00;;
56363;SDS011;42261;52.094;4.326;2022-11-20T14:24:21;37.50;;;17.60;;
56363;SDS011;42261;52.094;4.326;2022-11-20T14:27:19;40.00;;;18.45;;
56363;SDS011;42261;52.094;4.326;2022-11-20T14:30:05;43.15;;;19.48;;
56363;SDS011;42261;52.094;4.326;2022-11-20T14:32:57;41.92;;;20.45;;
56363;SDS011;42261;52.094;4.326;2022-11-20T14:35:47;39.25;;;18.85;;
56363;SDS011;42261;52.094;4.326;2022-11-20T14:38:32;37.35;;;17.38;;
56363;SDS011;42261;52.094;4.326;2022-11-20T14:41:20;41.75;;;18.48;;
56363;SDS011;42261;52.094;4.326;2022-11-20T14:44:06;40.25;;;17.30;;
56363;SDS011;42261;52.094;4.326;2022-11-20T14:46:52;36.20;;;17.88;;
56363;SDS011;42261;52.094;4.326;2022-11-20T14:49:37;37.10;;;16.42;;
56363;SDS011;42261;52.094;4.326;2022-11-20T14:52:25;37.65;;;17.25;;
56363;SDS011;42261;52.094;4.326;2022-11-20T14:55:13;36.65;;;17.75;;
56363;SDS011;42261;52.094;4.326;2022-11-20T14:57:59;40.90;;;19.85;;
56363;SDS011;42261;52.094;4.326;2022-11-20T15:00:53;42.17;;;20.27;;
56363;SDS011;42261;52.094;4.326;2022-11-20T15:03:40;39.65;;;19.13;;
56363;SDS011;42261;52.094;4.326;2022-11-20T15:06:25;38.33;;;19.48;;
56363;SDS011;42261;52.094;4.326;2022-11-20T15:09:14;37.28;;;18.65;;
56363;SDS011;42261;52.094;4.326;2022-11-20T15:14:46;36.35;;;18.20;;
56363;SDS011;42261;52.094;4.326;2022-11-20T15:17:31;35.25;;;16.65;;
56363;SDS011;42261;52.094;4.326;2022-11-20T15:20:16;35.80;;;16.58;;
56363;SDS011;42261;52.094;4.326;2022-11-20T15:23:01;40.70;;;19.08;;
56363;SDS011;42261;52.094;4.326;2022-11-20T15:25:44;36.00;;;16.88;;
56363;SDS011;42261;52.094;4.326;2022-11-20T15:28:30;35.92;;;16.45;;
56363;SDS011;42261;52.094;4.326;2022-11-20T15:31:17;32.53;;;15.60;;
56363;SDS011;42261;52.094;4.326;2022-11-20T15:34:05;30.90;;;14.73;;
56363;SDS011;42261;52.094;4.326;2022-11-20T15:36:51;37.65;;;18.23;;
56363;SDS011;42261;52.094;4.326;2022-11-20T15:39:36;31.33;;;16.58;;
56363;SDS011;42261;52.094;4.326;2022-11-20T15:42:20;27.80;;;14.27;;
56363;SDS011;42261;52.094;4.326;2022-11-20T15:45:04;27.73;;;15.80;;
56363;SDS011;42261;52.094;4.326;2022-11-20T15:47:48;31.23;;;15.50;;
56363;SDS011;42261;52.094;4.326;2022-11-20T15:50:41;31.00;;;16.38;;
56363;SDS011;42261;52.094;4.326;2022-11-20T15:53:40;31.92;;;15.85;;
56363;SDS011;42261;52.094;4.326;2022-11-20T15:56:25;31.08;;;15.00;;
56363;SDS011;42261;52.094;4.326;2022-11-20T15:59:09;32.05;;;17.13;;
56363;SDS011;42261;52.094;4.326;2022-11-20T16:01:53;57.63;;;25.90;;
56363;SDS011;42261;52.094;4.326;2022-11-20T16:04:38;54.13;;;24.05;;
56363;SDS011;42261;52.094;4.326;2022-11-20T16:07:22;53.72;;;23.70;;
56363;SDS011;42261;52.094;4.326;2022-11-20T16:10:07;31.33;;;17.20;;
56363;SDS011;42261;52.094;4.326;2022-11-20T16:12:52;28.42;;;15.10;;
56363;SDS011;42261;52.094;4.326;2022-11-20T16:15:56;30.30;;;14.75;;
56363;SDS011;42261;52.094;4.326;2022-11-20T16:18:41;33.55;;;16.35;;
56363;SDS011;42261;52.094;4.326;2022-11-20T16:21:25;48.13;;;20.20;;
56363;SDS011;42261;52.094;4.326;2022-11-20T16:24:16;35.70;;;16.23;;
56363;SDS011;42261;52.094;4.326;2022-11-20T16:27:00;35.38;;;16.48;;
56363;SDS011;42261;52.094;4.326;2022-11-20T16:29:44;35.60;;;16.98;;
56363;SDS011;42261;52.094;4.326;2022-11-20T16:32:28;35.05;;;17.63;;
56363;SDS011;42261;52.094;4.326;2022-11-20T16:35:13;37.97;;;17.75;;
56363;SDS011;42261;52.094;4.326;2022-11-20T16:37:58;44.92;;;20.80;;
56363;SDS011;42261;52.094;4.326;2022-11-20T16:40:42;34.97;;;15.77;;
56363;SDS011;42261;52.094;4.326;2022-11-20T16:43:26;39.88;;;19.02;;
56363;SDS011;42261;52.094;4.326;2022-11-20T16:46:10;29.52;;;15.50;;
56363;SDS011;42261;52.094;4.326;2022-11-20T16:49:13;30.02;;;15.93;;
56363;SDS011;42261;52.094;4.326;2022-11-20T16:51:58;36.35;;;17.58;;
56363;SDS011;42261;52.094;4.326;2022-11-20T16:54:42;35.65;;;17.27;;
56363;SDS011;42261;52.094;4.326;2022-11-20T16:57:27;30.45;;;15.43;;
56363;SDS011;42261;52.094;4.326;2022-11-20T17:00:12;36.70;;;16.83;;
56363;SDS011;42261;52.094;4.326;2022-11-20T17:02:57;33.55;;;14.80;;
56363;SDS011;42261;52.094;4.326;2022-11-20T17:05:41;27.20;;;13.55;;
56363;SDS011;42261;52.094;4.326;2022-11-20T17:08:27;24.70;;;14.15;;
56363;SDS011;42261;52.094;4.326;2022-11-20T17:11:13;24.98;;;13.88;;
56363;SDS011;42261;52.094;4.326;2022-11-20T17:13:59;40.58;;;19.77;;
56363;SDS011;42261;52.094;4.326;2022-11-20T17:16:43;41.50;;;18.40;;
56363;SDS011;42261;52.094;4.326;2022-11-20T17:19:28;28.15;;;13.57;;
56363;SDS011;42261;52.094;4.326;2022-11-20T17:22:12;27.52;;;12.60;;
56363;SDS011;42261;52.094;4.326;2022-11-20T17:24:57;29.73;;;15.00;;
56363;SDS011;42261;52.094;4.326;2022-11-20T17:27:42;27.42;;;14.52;;
56363;SDS011;42261;52.094;4.326;2022-11-20T17:30:27;30.98;;;15.20;;
56363;SDS011;42261;52.094;4.326;2022-11-20T17:33:12;26.85;;;12.98;;
56363;SDS011;42261;52.094;4.326;2022-11-20T17:35:57;26.42;;;12.35;;
56363;SDS011;42261;52.094;4.326;2022-11-20T17:38:41;27.20;;;14.90;;
56363;SDS011;42261;52.094;4.326;2022-11-20T17:41:27;26.05;;;14.30;;
56363;SDS011;42261;52.094;4.326;2022-11-20T17:44:12;25.60;;;14.00;;
56363;SDS011;42261;52.094;4.326;2022-11-20T17:46:57;32.30;;;19.13;;
56363;SDS011;42261;52.094;4.326;2022-11-20T17:49:41;31.10;;;17.45;;